Time;durP1;ratioP1;P1;durP2;ratioP2;P2;SDS_P1;SDS_P2;PMS_P1;PMS_P2;Temp;Humidity;BMP_temperature;BMP_pressure;BME280_temperature;BME280_humidity;BME280_pressure;Samples;Min_cycle;Max_cycle;Signal;HPM_P1;HPM_P2
2022/09/12 00:01:12;;;;;;;4.57;3.53;;;;;;;;;;4988826;28;20487;-74
2022/09/12 00:03:49;;;;;;;3.80;3.00;;;;;;;;;;4996836;28;20913;-74
2022/09/12 00:06:23;;;;;;;4.83;3.50;;;;;;;;;;4997907;28;20919;-73
2022/09/12 00:08:51;;;;;;;5.40;4.80;;;;;;;;;;4997001;28;20570;-74
2022/09/12 00:11:27;;;;;;;4.30;3.40;;;;;;;;;;4996878;28;20487;-74
2022/09/12 00:13:56;;;;;;;4.37;3.50;;;;;;;;;;4996926;28;20459;-74
2022/09/12 00:16:29;;;;;;;4.37;2.77;;;;;;;;;;4994051;28;20449;-73
2022/09/12 00:18:56;;;;;;;4.70;3.00;;;;;;;;;;4992731;28;20456;-74
2022/09/12 00:21:25;;;;;;;6.03;3.40;;;;;;;;;;4993017;28;20463;-75
2022/09/12 00:23:52;;;;;;;3.23;2.37;;;;;;;;;;4992062;28;20929;-73
2022/09/12 00:26:20;;;;;;;4.60;3.27;;;;;;;;;;4993303;28;20452;-75
2022/09/12 00:28:48;;;;;;;4.03;3.07;;;;;;;;;;4994696;28;20468;-75
2022/09/12 00:31:17;;;;;;;4.50;3.17;;;;;;;;;;4993934;28;20578;-76
2022/09/12 00:33:45;;;;;;;3.17;2.60;;;;;;;;;;4994011;28;20456;-75
2022/09/12 00:36:14;;;;;;;3.83;3.20;;;;;;;;;;4994140;28;20539;-74
2022/09/12 00:38:45;;;;;;;4.30;2.80;;;;;;;;;;4993141;28;20551;-75
2022/09/12 00:41:14;;;;;;;3.60;2.60;;;;;;;;;;4994596;28;20492;-75
2022/09/12 00:43:45;;;;;;;3.47;2.37;;;;;;;;;;4993598;28;20452;-75
2022/09/12 00:46:16;;;;;;;3.47;2.20;;;;;;;;;;4994510;28;20538;-75
2022/09/12 00:48:46;;;;;;;3.20;2.53;;;;;;;;;;4994270;28;20460;-75
2022/09/12 00:51:14;;;;;;;2.87;2.10;;;;;;;;;;4994535;28;20549;-75
2022/09/12 00:53:42;;;;;;;5.03;2.50;;;;;;;;;;4993638;28;20455;-75
2022/09/12 00:56:09;;;;;;;3.40;2.33;;;;;;;;;;4993852;28;20464;-75
2022/09/12 00:58:38;;;;;;;2.93;2.20;;;;;;;;;;4993998;28;20467;-76
2022/09/12 01:01:05;;;;;;;3.70;2.37;;;;;;;;;;4993825;28;20467;-75
2022/09/12 01:03:32;;;;;;;2.77;2.33;;;;;;;;;;4994180;28;20456;-75
2022/09/12 01:06:02;;;;;;;6.53;3.20;;;;;;;;;;4994014;28;20536;-76
2022/09/12 01:08:29;;;;;;;3.10;2.60;;;;;;;;;;4994101;28;20524;-74
2022/09/12 01:10:57;;;;;;;3.50;2.50;;;;;;;;;;4993212;28;20531;-75
2022/09/12 01:13:24;;;;;;;3.07;2.37;;;;;;;;;;4992232;28;20464;-75
2022/09/12 01:15:53;;;;;;;4.10;3.37;;;;;;;;;;4993148;28;20448;-75
2022/09/12 01:18:24;;;;;;;2.50;2.20;;;;;;;;;;4992766;28;20468;-75
2022/09/12 01:21:01;;;;;;;2.93;2.40;;;;;;;;;;4994368;28;20929;-75
2022/09/12 01:23:40;;;;;;;5.50;3.27;;;;;;;;;;4995042;28;20448;-75
2022/09/12 01:26:15;;;;;;;3.43;2.40;;;;;;;;;;4993425;28;20459;-75
2022/09/12 01:28:51;;;;;;;3.00;2.07;;;;;;;;;;4994453;28;20447;-75
2022/09/12 01:31:22;;;;;;;3.13;2.50;;;;;;;;;;4994478;28;20552;-75
2022/09/12 01:34:04;;;;;;;3.30;2.03;;;;;;;;;;4993776;28;20867;-75
2022/09/12 01:36:37;;;;;;;2.67;2.37;;;;;;;;;;4992890;28;20488;-75
2022/09/12 01:39:05;;;;;;;3.53;2.50;;;;;;;;;;4993296;28;20504;-75
2022/09/12 01:41:42;;;;;;;2.90;2.50;;;;;;;;;;4994254;28;20484;-76
2022/09/12 01:44:14;;;;;;;3.33;2.80;;;;;;;;;;4993634;28;20764;-75
2022/09/12 01:46:45;;;;;;;3.07;2.30;;;;;;;;;;4993422;28;20451;-75
2022/09/12 01:49:16;;;;;;;4.80;2.43;;;;;;;;;;4993900;28;20487;-75
2022/09/12 01:51:44;;;;;;;3.50;2.70;;;;;;;;;;4997212;28;20484;-75
2022/09/12 01:54:14;;;;;;;3.60;2.30;;;;;;;;;;4996807;28;20460;-76
2022/09/12 01:56:43;;;;;;;4.03;2.70;;;;;;;;;;4997123;28;20463;-75
2022/09/12 01:59:12;;;;;;;3.57;2.20;;;;;;;;;;4996365;28;20471;-75
2022/09/12 02:01:41;;;;;;;4.10;2.10;;;;;;;;;;4996731;28;20600;-74
2022/09/12 02:04:11;;;;;;;2.80;1.80;;;;;;;;;;4996828;28;20920;-75
2022/09/12 02:06:41;;;;;;;4.20;2.17;;;;;;;;;;4996048;28;20517;-76
2022/09/12 02:09:10;;;;;;;3.17;1.90;;;;;;;;;;4996417;28;20472;-75
2022/09/12 02:11:42;;;;;;;3.37;2.33;;;;;;;;;;4999327;28;20994;-75
2022/09/12 02:14:14;;;;;;;2.67;1.73;;;;;;;;;;4996731;28;20464;-75
2022/09/12 02:16:43;;;;;;;3.17;2.43;;;;;;;;;;4996117;28;20449;-75
2022/09/12 02:19:12;;;;;;;3.70;1.97;;;;;;;;;;4995575;28;20898;-75
2022/09/12 02:21:42;;;;;;;3.63;2.50;;;;;;;;;;4996517;28;20463;-75
2022/09/12 02:24:10;;;;;;;2.97;2.23;;;;;;;;;;4995609;28;20464;-75
2022/09/12 02:26:41;;;;;;;2.70;2.07;;;;;;;;;;4996027;28;20444;-75
2022/09/12 02:29:09;;;;;;;2.90;2.20;;;;;;;;;;4995691;28;20480;-77
2022/09/12 02:31:40;;;;;;;2.80;1.87;;;;;;;;;;4995252;28;20484;-75
2022/09/12 02:34:13;;;;;;;4.30;1.87;;;;;;;;;;4998424;28;20460;-76
2022/09/12 02:36:48;;;;;;;2.43;1.93;;;;;;;;;;4994722;28;20459;-74
2022/09/12 02:39:18;;;;;;;5.20;1.70;;;;;;;;;;4995439;28;20863;-74
2022/09/12 02:41:47;;;;;;;3.00;2.20;;;;;;;;;;4995860;28;20457;-75
2022/09/12 02:44:14;;;;;;;3.33;1.90;;;;;;;;;;4996806;28;20469;-75
2022/09/12 02:46:43;;;;;;;3.60;1.90;;;;;;;;;;4994920;28;20444;-75
2022/09/12 02:49:11;;;;;;;2.43;1.73;;;;;;;;;;4995543;28;20878;-75
2022/09/12 02:51:38;;;;;;;2.77;1.80;;;;;;;;;;4992052;28;20472;-75
2022/09/12 02:54:06;;;;;;;3.00;2.00;;;;;;;;;;4996243;28;20466;-75
2022/09/12 02:56:33;;;;;;;3.80;1.70;;;;;;;;;;4995486;28;20577;-76
2022/09/12 02:59:03;;;;;;;2.77;1.90;;;;;;;;;;4991061;28;20454;-75
2022/09/12 03:01:38;;;;;;;2.63;1.80;;;;;;;;;;4991643;28;20744;-76
2022/09/12 03:04:19;;;;;;;2.30;1.80;;;;;;;;;;4991935;28;20478;-75
2022/09/12 03:06:53;;;;;;;2.33;1.77;;;;;;;;;;4991977;28;20459;-75
2022/09/12 03:09:26;;;;;;;2.90;1.87;;;;;;;;;;4992454;28;20514;-75
2022/09/12 03:12:02;;;;;;;2.43;1.90;;;;;;;;;;4992658;28;20800;-76
2022/09/12 03:14:46;;;;;;;3.27;1.90;;;;;;;;;;4993043;28;20789;-76
2022/09/12 03:17:16;;;;;;;3.00;2.03;;;;;;;;;;4991202;28;20715;-75
2022/09/12 03:19:51;;;;;;;3.13;1.77;;;;;;;;;;4991268;28;20452;-76
2022/09/12 03:22:21;;;;;;;2.47;1.67;;;;;;;;;;4992193;28;20804;-76
2022/09/12 03:24:52;;;;;;;2.20;1.73;;;;;;;;;;4992092;28;20467;-75
2022/09/12 03:27:51;;;;;;;2.40;1.90;;;;;;;;;;4991295;28;20448;-76
2022/09/12 03:30:18;;;;;;;2.90;2.27;;;;;;;;;;4991074;28;20937;-75
2022/09/12 03:32:47;;;;;;;2.60;2.03;;;;;;;;;;4991198;28;20492;-75
2022/09/12 03:35:15;;;;;;;3.10;2.40;;;;;;;;;;4991418;28;20444;-75
2022/09/12 03:37:43;;;;;;;2.73;2.27;;;;;;;;;;4992932;28;20471;-75
2022/09/12 03:40:12;;;;;;;4.67;2.70;;;;;;;;;;4994710;28;20638;-75
2022/09/12 03:42:39;;;;;;;2.10;1.70;;;;;;;;;;4995181;28;20456;-76
2022/09/12 03:45:10;;;;;;;3.30;2.40;;;;;;;;;;4994300;28;20465;-75
2022/09/12 03:47:37;;;;;;;2.43;2.20;;;;;;;;;;4994909;28;20496;-75
2022/09/12 03:50:05;;;;;;;2.97;2.27;;;;;;;;;;4994734;28;20462;-75
2022/09/12 03:52:35;;;;;;;4.43;3.13;;;;;;;;;;4997977;28;20490;-75
2022/09/12 03:55:02;;;;;;;5.50;3.03;;;;;;;;;;5000571;28;20460;-75
2022/09/12 03:57:29;;;;;;;3.80;2.77;;;;;;;;;;4997527;28;20562;-73
2022/09/12 03:59:57;;;;;;;3.30;2.57;;;;;;;;;;4997231;28;20489;-74
2022/09/12 04:02:24;;;;;;;3.20;2.63;;;;;;;;;;4997506;28;20456;-74
2022/09/12 04:04:51;;;;;;;3.10;2.50;;;;;;;;;;4998117;28;20452;-75
2022/09/12 04:07:22;;;;;;;3.10;2.40;;;;;;;;;;4997679;28;20530;-75
2022/09/12 04:09:51;;;;;;;2.60;2.20;;;;;;;;;;5000821;28;20512;-75
2022/09/12 04:12:18;;;;;;;3.13;2.50;;;;;;;;;;4997382;28;20507;-75
2022/09/12 04:14:45;;;;;;;3.40;2.10;;;;;;;;;;4997198;28;20454;-74
2022/09/12 04:17:13;;;;;;;2.27;1.67;;;;;;;;;;4997301;28;20519;-74
2022/09/12 04:19:41;;;;;;;2.63;1.80;;;;;;;;;;4996091;28;20474;-75
2022/09/12 04:22:08;;;;;;;2.77;2.10;;;;;;;;;;5000809;28;20547;-75
2022/09/12 04:24:35;;;;;;;4.27;2.53;;;;;;;;;;4997429;28;20447;-74
2022/09/12 04:27:03;;;;;;;5.57;2.13;;;;;;;;;;4999694;28;20464;-74
2022/09/12 04:29:34;;;;;;;3.57;2.67;;;;;;;;;;4997619;28;20475;-75
2022/09/12 04:32:02;;;;;;;2.83;1.90;;;;;;;;;;4994232;28;20491;-74
2022/09/12 04:34:30;;;;;;;3.53;2.20;;;;;;;;;;4995240;28;20463;-75
2022/09/12 04:36:57;;;;;;;4.97;2.03;;;;;;;;;;4994417;28;20460;-75
2022/09/12 04:39:25;;;;;;;3.23;2.30;;;;;;;;;;4995622;28;20732;-75
2022/09/12 04:41:52;;;;;;;3.43;2.07;;;;;;;;;;4993349;28;20464;-76
2022/09/12 04:44:20;;;;;;;3.50;2.43;;;;;;;;;;4994242;28;21090;-76
2022/09/12 04:46:47;;;;;;;2.70;1.90;;;;;;;;;;4995795;28;20464;-75
2022/09/12 04:49:16;;;;;;;3.60;2.40;;;;;;;;;;4993672;28;20496;-76
2022/09/12 04:51:43;;;;;;;2.90;2.30;;;;;;;;;;4995186;28;20488;-75
2022/09/12 04:54:12;;;;;;;2.60;2.33;;;;;;;;;;4994237;28;20521;-75
2022/09/12 04:56:39;;;;;;;2.37;2.10;;;;;;;;;;4995034;28;20464;-76
2022/09/12 04:59:07;;;;;;;3.13;2.40;;;;;;;;;;4996320;28;20471;-74
2022/09/12 05:01:35;;;;;;;4.10;2.80;;;;;;;;;;4996405;28;20476;-75
2022/09/12 05:04:06;;;;;;;4.10;2.70;;;;;;;;;;4978103;28;20823;-76
2022/09/12 05:06:35;;;;;;;4.07;2.53;;;;;;;;;;4993118;28;20522;-76
2022/09/12 05:09:02;;;;;;;3.23;2.27;;;;;;;;;;4992990;28;20451;-75
2022/09/12 05:11:31;;;;;;;2.80;2.00;;;;;;;;;;4993362;28;20488;-76
2022/09/12 05:13:59;;;;;;;3.63;2.10;;;;;;;;;;4993345;28;20535;-75
2022/09/12 05:16:27;;;;;;;3.73;2.40;;;;;;;;;;4994432;28;20468;-75
2022/09/12 05:18:57;;;;;;;2.90;2.20;;;;;;;;;;4992638;28;20452;-75
2022/09/12 05:21:24;;;;;;;5.27;2.53;;;;;;;;;;4994884;28;20525;-75
2022/09/12 05:23:52;;;;;;;5.33;2.40;;;;;;;;;;4994080;28;20464;-75
2022/09/12 05:26:20;;;;;;;3.50;2.23;;;;;;;;;;4994508;28;20453;-75
2022/09/12 05:28:50;;;;;;;8.50;2.80;;;;;;;;;;4992676;28;20519;-75
2022/09/12 05:31:21;;;;;;;3.27;2.37;;;;;;;;;;4994415;28;20472;-75
2022/09/12 05:33:51;;;;;;;3.20;2.77;;;;;;;;;;4994027;28;20456;-76
2022/09/12 05:36:36;;;;;;;2.87;2.50;;;;;;;;;;4995117;28;20495;-75
2022/09/12 05:39:04;;;;;;;4.10;3.20;;;;;;;;;;4973454;28;20547;-75
2022/09/12 05:42:03;;;;;;;4.80;3.67;;;;;;;;;;4991999;28;20800;-76
2022/09/12 05:44:44;;;;;;;4.40;3.00;;;;;;;;;;4992181;28;20482;-75
2022/09/12 05:47:40;;;;;;;;;;;;;;;;;;;;;
2022/09/12 05:50:20;;;;;;;3.47;3.17;;;;;;;;;;4977674;28;20472;-75
2022/09/12 05:52:51;;;;;;;4.50;3.43;;;;;;;;;;4975172;28;20484;-76
2022/09/12 06:01:55;;;;;;;;;;;;;;;;;;;;;
2022/09/12 06:04:23;;;;;;;4.50;3.27;;;;;;;;;;4948188;28;20476;-74
2022/09/12 06:06:52;;;;;;;2.97;2.63;;;;;;;;;;4989324;28;20545;-72
2022/09/12 06:09:24;;;;;;;3.77;3.23;;;;;;;;;;4989519;28;20839;-73
2022/09/12 06:11:53;;;;;;;4.30;3.33;;;;;;;;;;4989737;28;20518;-77
2022/09/12 06:14:23;;;;;;;5.53;4.47;;;;;;;;;;4988623;28;20479;-73
2022/09/12 06:16:54;;;;;;;5.37;3.90;;;;;;;;;;4980880;28;20481;-74
2022/09/12 06:19:26;;;;;;;3.87;3.23;;;;;;;;;;4979017;28;20464;-74
2022/09/12 06:22:01;;;;;;;3.43;2.87;;;;;;;;;;4985995;28;20475;-74
2022/09/12 06:24:33;;;;;;;5.10;3.90;;;;;;;;;;4985655;28;20478;-74
2022/09/12 06:27:03;;;;;;;3.67;3.27;;;;;;;;;;5002020;28;20456;-73
2022/09/12 06:29:39;;;;;;;6.63;4.63;;;;;;;;;;4978887;28;20479;-72
2022/09/12 06:32:36;;;;;;;5.70;4.50;;;;;;;;;;4990638;28;20594;-73
2022/09/12 06:35:04;;;;;;;6.90;3.70;;;;;;;;;;4970099;28;20468;-73
2022/09/12 06:37:33;;;;;;;4.00;3.60;;;;;;;;;;4991873;28;20463;-73
2022/09/12 06:40:08;;;;;;;7.73;5.60;;;;;;;;;;4985889;28;20881;-74
2022/09/12 06:42:43;;;;;;;6.13;3.63;;;;;;;;;;4986804;28;20474;-78
2022/09/12 06:45:18;;;;;;;5.80;4.37;;;;;;;;;;4983978;28;20479;-77
2022/09/12 06:47:46;;;;;;;5.40;4.00;;;;;;;;;;4976363;28;20468;-75
2022/09/12 06:50:16;;;;;;;7.53;4.30;;;;;;;;;;4975903;28;21022;-76
2022/09/12 06:52:44;;;;;;;10.90;4.73;;;;;;;;;;4972527;28;20484;-75
2022/09/12 06:58:13;;;;;;;4.20;3.37;;;;;;;;;;5053057;28;20548;-75
2022/09/12 07:00:46;;;;;;;4.30;3.23;;;;;;;;;;4990751;28;20472;-76
2022/09/12 07:03:17;;;;;;;3.63;2.57;;;;;;;;;;4982464;28;20468;-75
2022/09/12 07:05:44;;;;;;;4.10;2.93;;;;;;;;;;4984897;28;20469;-77
2022/09/12 07:08:15;;;;;;;6.53;3.50;;;;;;;;;;4986098;28;20461;-76
2022/09/12 07:10:42;;;;;;;4.43;3.27;;;;;;;;;;4984560;28;20484;-76
2022/09/12 07:13:16;;;;;;;3.90;3.17;;;;;;;;;;4990285;28;20540;-77
2022/09/12 07:15:46;;;;;;;42.73;32.53;;;;;;;;;;4981004;28;20770;-76
2022/09/12 07:18:17;;;;;;;9.37;4.00;;;;;;;;;;4982561;28;20537;-74
2022/09/12 07:21:08;;;;;;;4.50;3.40;;;;;;;;;;4982273;28;20990;-74
2022/09/12 07:23:39;;;;;;;4.87;3.80;;;;;;;;;;4988298;28;20748;-74
2022/09/12 07:26:18;;;;;;;7.07;4.80;;;;;;;;;;4990795;28;20491;-75
2022/09/12 07:28:51;;;;;;;5.80;4.83;;;;;;;;;;4990380;28;20472;-75
2022/09/12 07:31:19;;;;;;;4.60;3.50;;;;;;;;;;4984490;28;20559;-75
2022/09/12 07:33:47;;;;;;;3.93;3.53;;;;;;;;;;4989124;28;20890;-74
2022/09/12 07:36:16;;;;;;;6.00;4.50;;;;;;;;;;4989180;28;20452;-74
2022/09/12 07:38:47;;;;;;;6.67;3.43;;;;;;;;;;4988493;28;20458;-75
2022/09/12 07:41:22;;;;;;;6.40;3.90;;;;;;;;;;4984134;28;20477;-73
2022/09/12 07:43:54;;;;;;;4.73;3.90;;;;;;;;;;4979020;28;21098;-74
2022/09/12 07:46:22;;;;;;;4.50;3.23;;;;;;;;;;4976608;28;21049;-74
2022/09/12 07:48:59;;;;;;;241.97;24.13;;;;;;;;;;5003330;28;20464;-74
2022/09/12 07:51:34;;;;;;;54.17;6.70;;;;;;;;;;4976580;28;20465;-74
2022/09/12 07:54:09;;;;;;;8.70;4.47;;;;;;;;;;4975708;28;20875;-74
2022/09/12 07:56:45;;;;;;;6.30;3.60;;;;;;;;;;4980155;28;20530;-74
2022/09/12 07:59:17;;;;;;;6.13;3.20;;;;;;;;;;4984166;28;20479;-73
2022/09/12 08:02:01;;;;;;;5.77;3.67;;;;;;;;;;4979315;28;20477;-74
2022/09/12 08:04:37;;;;;;;6.43;4.13;;;;;;;;;;4982645;28;20471;-73
2022/09/12 08:07:10;;;;;;;5.20;4.07;;;;;;;;;;4973056;28;20782;-74
2022/09/12 08:09:40;;;;;;;6.07;5.00;;;;;;;;;;4975043;28;20524;-74
2022/09/12 08:12:08;;;;;;;4.27;3.53;;;;;;;;;;4982755;28;20476;-75
2022/09/12 08:14:36;;;;;;;12.97;7.87;;;;;;;;;;4975157;28;20449;-73
2022/09/12 08:17:05;;;;;;;4.67;3.97;;;;;;;;;;4980180;28;20498;-71
2022/09/12 08:19:37;;;;;;;4.47;3.40;;;;;;;;;;4981870;28;20464;-70
2022/09/12 08:22:04;;;;;;;4.90;3.20;;;;;;;;;;4971482;28;20550;-71
2022/09/12 08:24:31;;;;;;;5.40;3.60;;;;;;;;;;4979847;28;20464;-69
2022/09/12 08:27:00;;;;;;;3.80;3.40;;;;;;;;;;4981876;28;20497;-70
2022/09/12 08:29:27;;;;;;;3.97;3.20;;;;;;;;;;4987194;28;20456;-71
2022/09/12 08:31:56;;;;;;;4.10;2.93;;;;;;;;;;4996850;28;20577;-71
2022/09/12 08:34:24;;;;;;;3.23;2.53;;;;;;;;;;5013527;28;20454;-71
2022/09/12 08:36:53;;;;;;;4.03;3.53;;;;;;;;;;4977267;28;20480;-70
2022/09/12 08:39:21;;;;;;;4.87;3.53;;;;;;;;;;4990355;28;20509;-71
2022/09/12 08:41:49;;;;;;;5.17;3.27;;;;;;;;;;4986298;28;20980;-70
2022/09/12 08:44:31;;;;;;;4.63;3.60;;;;;;;;;;4981208;28;20460;-70
2022/09/12 08:47:10;;;;;;;3.60;2.20;;;;;;;;;;4979108;28;21020;-68
2022/09/12 08:49:40;;;;;;;3.83;2.33;;;;;;;;;;4975893;28;20472;-69
2022/09/12 08:52:12;;;;;;;6.10;3.60;;;;;;;;;;4979202;28;20571;-68
2022/09/12 08:54:40;;;;;;;3.43;2.50;;;;;;;;;;4975435;28;20572;-70
2022/09/12 08:57:13;;;;;;;3.90;3.00;;;;;;;;;;4969973;28;20479;-71
2022/09/12 08:59:41;;;;;;;5.00;2.90;;;;;;;;;;4976478;28;20518;-69
2022/09/12 09:02:19;;;;;;;3.43;2.70;;;;;;;;;;4978273;28;20461;-72
2022/09/12 09:04:53;;;;;;;3.20;2.67;;;;;;;;;;4985763;28;20478;-71
2022/09/12 09:07:31;;;;;;;5.00;2.57;;;;;;;;;;4980686;28;20467;-70
2022/09/12 09:10:24;;;;;;;4.07;2.63;;;;;;;;;;4981958;28;20468;-70
2022/09/12 09:12:55;;;;;;;4.67;3.50;;;;;;;;;;4974730;28;20584;-69
2022/09/12 09:15:30;;;;;;;4.80;3.03;;;;;;;;;;4984675;28;20802;-69
2022/09/12 09:18:03;;;;;;;3.30;2.40;;;;;;;;;;4972120;28;20538;-71
2022/09/12 09:20:35;;;;;;;2.80;2.03;;;;;;;;;;4987734;28;21002;-69
2022/09/12 09:23:04;;;;;;;3.30;2.30;;;;;;;;;;4988442;28;20517;-70
2022/09/12 09:25:42;;;;;;;3.10;2.40;;;;;;;;;;4973259;28;20504;-70
2022/09/12 09:28:15;;;;;;;4.33;2.70;;;;;;;;;;4976346;28;21078;-71
2022/09/12 09:30:44;;;;;;;2.97;2.10;;;;;;;;;;4985162;28;20473;-71
2022/09/12 09:33:18;;;;;;;3.10;2.07;;;;;;;;;;4986982;28;20574;-70
2022/09/12 09:35:47;;;;;;;2.70;2.13;;;;;;;;;;4982962;28;21499;-69
2022/09/12 09:38:23;;;;;;;2.47;1.97;;;;;;;;;;4975330;28;20468;-71
2022/09/12 09:40:56;;;;;;;3.80;2.50;;;;;;;;;;4968020;28;20518;-70
2022/09/12 09:43:26;;;;;;;3.30;2.37;;;;;;;;;;4980201;28;20473;-72
2022/09/12 09:45:53;;;;;;;5.13;2.30;;;;;;;;;;4985972;28;20472;-70
2022/09/12 09:48:24;;;;;;;6.80;2.30;;;;;;;;;;4985648;28;20478;-70
2022/09/12 09:51:06;;;;;;;1.97;1.50;;;;;;;;;;4969517;28;20480;-71
2022/09/12 09:53:40;;;;;;;2.50;1.43;;;;;;;;;;4972311;28;20667;-71
2022/09/12 09:56:13;;;;;;;8.50;2.30;;;;;;;;;;4979444;28;20465;-71
2022/09/12 09:58:40;;;;;;;3.10;1.80;;;;;;;;;;4988673;28;20472;-70
2022/09/12 10:01:13;;;;;;;6.43;3.00;;;;;;;;;;4982380;28;20487;-71
2022/09/12 10:03:52;;;;;;;3.30;2.63;;;;;;;;;;4985062;28;20493;-70
2022/09/12 10:06:24;;;;;;;4.47;3.07;;;;;;;;;;4981500;28;20599;-70
2022/09/12 10:09:04;;;;;;;4.53;2.57;;;;;;;;;;4982832;28;20495;-70
2022/09/12 10:11:42;;;;;;;3.17;2.23;;;;;;;;;;4982659;28;20942;-70
2022/09/12 10:14:27;;;;;;;3.20;2.37;;;;;;;;;;4979652;28;20465;-70
2022/09/12 10:16:57;;;;;;;2.53;1.30;;;;;;;;;;4972965;28;20508;-71
2022/09/12 10:19:35;;;;;;;2.43;1.40;;;;;;;;;;4973631;28;21137;-69
2022/09/12 10:22:03;;;;;;;3.07;1.70;;;;;;;;;;4974919;28;20853;-69
2022/09/12 10:24:34;;;;;;;4.80;2.50;;;;;;;;;;4971940;28;20530;-70
2022/09/12 10:27:19;;;;;;;2.77;1.10;;;;;;;;;;4975718;28;20472;-71
2022/09/12 10:29:47;;;;;;;1.93;1.30;;;;;;;;;;4969723;28;20536;-69
2022/09/12 10:32:22;;;;;;;2.10;1.20;;;;;;;;;;4974759;28;20485;-70
2022/09/12 10:34:53;;;;;;;3.10;2.10;;;;;;;;;;5062069;28;20456;-70
2022/09/12 10:37:25;;;;;;;5.13;3.07;;;;;;;;;;5028313;28;20630;-71
2022/09/12 10:39:55;;;;;;;3.70;2.17;;;;;;;;;;4970642;28;20488;-71
2022/09/12 10:42:42;;;;;;;5.50;3.10;;;;;;;;;;4980472;28;20464;-71
2022/09/12 10:45:27;;;;;;;2.40;1.40;;;;;;;;;;5011199;28;20465;-71
2022/09/12 10:47:59;;;;;;;2.30;1.30;;;;;;;;;;5008520;28;20464;-70
2022/09/12 10:50:29;;;;;;;2.77;1.60;;;;;;;;;;4983146;28;20479;-70
2022/09/12 10:53:13;;;;;;;2.90;1.50;;;;;;;;;;4980802;28;20871;-70
2022/09/12 10:55:42;;;;;;;2.20;1.40;;;;;;;;;;4978365;28;20464;-70
2022/09/12 10:58:17;;;;;;;2.30;1.17;;;;;;;;;;4977660;28;20555;-71
2022/09/12 11:00:49;;;;;;;2.60;1.27;;;;;;;;;;4973107;28;20538;-70
2022/09/12 11:03:32;;;;;;;2.00;1.30;;;;;;;;;;4982102;28;20481;-70
2022/09/12 11:06:21;;;;;;;;;;;;;;;;;;;;;
2022/09/12 11:09:21;;;;;;;3.37;1.60;;;;;;;;;;4976483;28;20500;-71
2022/09/12 11:12:04;;;;;;;2.63;1.67;;;;;;;;;;4983486;28;20766;-70
2022/09/12 11:14:39;;;;;;;8.00;1.40;;;;;;;;;;4982544;28;20455;-71
2022/09/12 11:17:12;;;;;;;2.70;1.10;;;;;;;;;;4987708;28;20471;-70
2022/09/12 11:20:12;;;;;;;3.50;1.80;;;;;;;;;;4984358;28;20464;-71
2022/09/12 11:22:57;;;;;;;6.00;1.30;;;;;;;;;;4995659;28;20467;-71
2022/09/12 11:25:33;;;;;;;4.30;2.07;;;;;;;;;;4984274;28;20472;-69
2022/09/12 11:28:29;;;;;;;5.70;4.00;;;;;;;;;;4971595;28;20471;-71
2022/09/12 11:31:08;;;;;;;2.20;1.37;;;;;;;;;;4973108;28;20472;-71
2022/09/12 11:33:45;;;;;;;2.90;1.50;;;;;;;;;;4975857;28;20836;-70
2022/09/12 11:36:18;;;;;;;2.73;1.47;;;;;;;;;;4969474;28;20469;-71
2022/09/12 11:39:05;;;;;;;3.73;1.93;;;;;;;;;;4967718;28;20972;-70
2022/09/12 11:41:38;;;;;;;2.40;1.30;;;;;;;;;;4976283;28;20829;-70
2022/09/12 11:44:12;;;;;;;1.90;1.13;;;;;;;;;;4979594;28;20554;-71
2022/09/12 11:46:40;;;;;;;2.40;1.50;;;;;;;;;;4972143;28;20475;-72
2022/09/12 11:49:17;;;;;;;2.37;1.50;;;;;;;;;;4974935;28;20557;-72
2022/09/12 11:51:50;;;;;;;1.93;1.40;;;;;;;;;;4968506;28;20472;-71
2022/09/12 11:54:22;;;;;;;2.13;1.50;;;;;;;;;;4975788;28;20480;-71
2022/09/12 11:56:51;;;;;;;3.00;2.00;;;;;;;;;;4969070;28;20538;-70
2022/09/12 11:59:27;;;;;;;5.00;3.13;;;;;;;;;;4975755;28;20783;-70
2022/09/12 12:01:58;;;;;;;2.03;1.20;;;;;;;;;;4979197;28;20537;-71
2022/09/12 12:04:31;;;;;;;9.40;1.17;;;;;;;;;;4976549;28;20463;-70
2022/09/12 12:07:02;;;;;;;2.77;1.83;;;;;;;;;;4973573;28;20565;-71
2022/09/12 12:09:34;;;;;;;2.37;1.20;;;;;;;;;;4977849;28;20472;-70
2022/09/12 12:12:04;;;;;;;2.63;1.70;;;;;;;;;;4974841;28;20576;-71
2022/09/12 12:14:33;;;;;;;3.10;1.60;;;;;;;;;;4976992;28;20564;-70
2022/09/12 12:17:03;;;;;;;1.90;1.10;;;;;;;;;;4975222;28;20577;-70
2022/09/12 12:19:33;;;;;;;1.80;1.20;;;;;;;;;;4975466;28;20464;-71
2022/09/12 12:22:16;;;;;;;2.30;1.43;;;;;;;;;;4973865;28;20514;-70
2022/09/12 12:25:02;;;;;;;2.17;1.43;;;;;;;;;;4970430;28;20569;-70
2022/09/12 12:27:44;;;;;;;2.33;1.17;;;;;;;;;;4975265;28;20516;-70
2022/09/12 12:30:26;;;;;;;4.43;1.40;;;;;;;;;;4980789;28;20472;-70
2022/09/12 12:33:00;;;;;;;6.07;3.60;;;;;;;;;;5010523;28;20473;-70
2022/09/12 12:35:41;;;;;;;11.77;3.40;;;;;;;;;;4977176;28;20467;-70
2022/09/12 12:38:23;;;;;;;2.83;2.03;;;;;;;;;;4974346;28;20478;-70
2022/09/12 12:40:51;;;;;;;2.43;1.40;;;;;;;;;;4978786;28;20922;-70
2022/09/12 12:43:39;;;;;;;3.03;1.67;;;;;;;;;;4976991;28;20914;-70
2022/09/12 12:46:11;;;;;;;4.10;3.40;;;;;;;;;;4971135;28;20471;-70
2022/09/12 12:48:53;;;;;;;7.27;2.10;;;;;;;;;;4974378;28;20465;-69
2022/09/12 12:51:34;;;;;;;3.63;1.37;;;;;;;;;;4979795;28;21011;-70
2022/09/12 12:54:03;;;;;;;2.67;1.37;;;;;;;;;;4980448;28;20519;-70
2022/09/12 12:56:46;;;;;;;2.43;1.67;;;;;;;;;;4977790;28;20468;-71
2022/09/12 12:59:16;;;;;;;4.40;2.30;;;;;;;;;;4980599;28;20542;-69
2022/09/12 13:01:53;;;;;;;2.57;1.80;;;;;;;;;;4979364;28;20782;-71
2022/09/12 13:04:25;;;;;;;2.70;1.50;;;;;;;;;;4987242;28;20499;-70
2022/09/12 13:07:05;;;;;;;2.30;1.60;;;;;;;;;;4984055;28;20541;-70
2022/09/12 13:09:38;;;;;;;3.57;2.23;;;;;;;;;;4982244;28;20954;-70
2022/09/12 13:12:19;;;;;;;6.20;2.07;;;;;;;;;;4974639;28;20550;-71
2022/09/12 13:14:54;;;;;;;2.13;1.23;;;;;;;;;;4996853;28;20503;-70
2022/09/12 13:17:25;;;;;;;4.50;1.17;;;;;;;;;;4989823;28;20476;-70
2022/09/12 13:19:55;;;;;;;3.77;1.67;;;;;;;;;;4987751;28;20445;-70
2022/09/12 13:22:24;;;;;;;2.67;1.43;;;;;;;;;;4988382;28;20491;-69
2022/09/12 13:24:53;;;;;;;2.40;1.20;;;;;;;;;;4995284;28;20464;-70
2022/09/12 13:27:21;;;;;;;2.60;1.37;;;;;;;;;;4990380;28;20839;-70
2022/09/12 13:29:49;;;;;;;2.10;1.13;;;;;;;;;;4991751;28;20469;-70
2022/09/12 13:32:17;;;;;;;1.93;1.30;;;;;;;;;;4983094;28;20508;-70
2022/09/12 13:35:02;;;;;;;1.60;0.93;;;;;;;;;;4999362;28;20628;-70
2022/09/12 13:40:32;;;;;;;2.23;1.20;;;;;;;;;;4984810;28;20447;-70
2022/09/12 13:43:15;;;;;;;1.87;1.13;;;;;;;;;;4986721;28;20510;-72
2022/09/12 13:45:44;;;;;;;1.83;1.10;;;;;;;;;;4987451;28;20455;-69
2022/09/12 13:48:14;;;;;;;2.20;1.20;;;;;;;;;;4970635;28;20468;-70
2022/09/12 13:50:46;;;;;;;3.03;1.63;;;;;;;;;;4981444;28;20464;-70
2022/09/12 13:53:16;;;;;;;2.07;1.23;;;;;;;;;;4990440;28;20500;-70
2022/09/12 13:55:57;;;;;;;3.77;1.60;;;;;;;;;;4989114;28;20452;-70
2022/09/12 13:58:26;;;;;;;5.97;2.20;;;;;;;;;;4991586;28;20460;-69
2022/09/12 14:01:05;;;;;;;2.70;1.70;;;;;;;;;;4983893;28;20537;-69
2022/09/12 14:06:20;;;;;;;2.70;1.90;;;;;;;;;;4970422;28;20503;-70
2022/09/12 14:08:48;;;;;;;2.80;1.50;;;;;;;;;;4970133;28;20495;-70
2022/09/12 14:11:25;;;;;;;2.70;1.50;;;;;;;;;;4968736;28;20461;-70
2022/09/12 14:13:54;;;;;;;4.07;2.17;;;;;;;;;;5057849;28;20509;-70
2022/09/12 14:16:26;;;;;;;3.17;1.57;;;;;;;;;;5071456;28;21045;-69
2022/09/12 14:19:07;;;;;;;2.43;1.83;;;;;;;;;;4992940;28;20496;-69
2022/09/12 14:21:36;;;;;;;4.47;1.50;;;;;;;;;;4985632;28;20789;-70
2022/09/12 14:24:07;;;;;;;3.17;1.30;;;;;;;;;;4984045;28;20461;-69
2022/09/12 14:26:41;;;;;;;4.03;2.00;;;;;;;;;;4983715;28;21148;-70
2022/09/12 14:29:12;;;;;;;3.70;2.80;;;;;;;;;;4975357;28;20469;-70
2022/09/12 14:31:42;;;;;;;4.03;1.50;;;;;;;;;;4985180;28;20940;-71
2022/09/12 14:34:11;;;;;;;3.50;1.93;;;;;;;;;;4992143;28;21045;-69
2022/09/12 14:36:41;;;;;;;2.67;1.90;;;;;;;;;;4974362;28;20457;-69
2022/09/12 14:39:16;;;;;;;3.63;1.37;;;;;;;;;;4986350;28;20715;-69
2022/09/12 14:41:45;;;;;;;2.60;1.20;;;;;;;;;;4976501;28;21077;-70
2022/09/12 14:44:17;;;;;;;2.57;1.20;;;;;;;;;;4990048;28;20473;-71
2022/09/12 14:46:45;;;;;;;3.30;1.93;;;;;;;;;;5018088;28;20517;-70
2022/09/12 14:49:15;;;;;;;3.73;1.97;;;;;;;;;;4979867;28;20461;-70
2022/09/12 14:51:46;;;;;;;4.20;2.93;;;;;;;;;;4983352;28;20475;-70
2022/09/12 14:54:33;;;;;;;3.40;2.00;;;;;;;;;;4983518;28;20531;-69
2022/09/12 14:57:03;;;;;;;4.23;2.50;;;;;;;;;;4975028;28;20494;-70
2022/09/12 14:59:39;;;;;;;3.13;1.80;;;;;;;;;;4975765;28;20556;-69
2022/09/12 15:02:30;;;;;;;3.60;1.93;;;;;;;;;;4986889;28;20458;-70
2022/09/12 15:05:12;;;;;;;2.67;1.30;;;;;;;;;;4998689;28;20535;-69
2022/09/12 15:07:45;;;;;;;3.37;1.60;;;;;;;;;;4991946;28;20475;-70
2022/09/12 15:10:20;;;;;;;3.00;1.53;;;;;;;;;;4983167;28;20465;-70
2022/09/12 15:12:48;;;;;;;5.70;1.80;;;;;;;;;;4989032;28;20596;-70
2022/09/12 15:15:17;;;;;;;2.70;1.80;;;;;;;;;;4972690;28;20721;-70
2022/09/12 15:17:48;;;;;;;1.93;1.37;;;;;;;;;;4977616;28;20796;-71
2022/09/12 15:20:18;;;;;;;2.43;1.80;;;;;;;;;;4981381;28;20483;-70
2022/09/12 15:22:48;;;;;;;3.90;2.43;;;;;;;;;;4979001;28;20495;-71
2022/09/12 15:25:16;;;;;;;7.03;4.10;;;;;;;;;;4973536;28;20465;-70
2022/09/12 15:27:44;;;;;;;4.80;3.40;;;;;;;;;;4981213;28;20537;-70
2022/09/12 15:30:12;;;;;;;3.40;2.50;;;;;;;;;;4984528;28;20933;-70
2022/09/12 15:32:42;;;;;;;4.13;2.90;;;;;;;;;;4983489;28;20570;-70